createdAt,value
2024-02-06T00:00:15.574Z,13.23
2024-02-06T00:02:48.577Z,14.23
2024-02-06T00:05:20.648Z,16.50
2024-02-06T00:07:53.222Z,15.40
2024-02-06T00:10:26.617Z,14.00
2024-02-06T00:12:59.358Z,12.25
2024-02-06T00:15:31.328Z,16.02
2024-02-06T00:18:04.244Z,16.20
2024-02-06T00:20:36.722Z,13.38
2024-02-06T00:23:09.564Z,16.93
2024-02-06T00:25:41.538Z,15.23
2024-02-06T00:28:14.072Z,12.20
2024-02-06T00:30:46.134Z,14.93
2024-02-06T00:36:45.827Z,14.90
2024-02-06T00:39:18.197Z,14.52
2024-02-06T00:41:50.204Z,16.70
2024-02-06T00:44:23.005Z,15.70
2024-02-06T00:46:54.945Z,14.82
2024-02-06T00:49:27.580Z,14.57
2024-02-06T00:51:59.622Z,15.95
2024-02-06T00:54:31.998Z,15.77
2024-02-06T00:57:04.621Z,14.07
2024-02-06T00:59:37.160Z,18.15
2024-02-06T01:02:09.270Z,16.03
2024-02-06T01:04:41.969Z,19.17
2024-02-06T01:07:14.149Z,13.18
2024-02-06T01:09:49.830Z,12.20
2024-02-06T01:12:22.015Z,15.95
2024-02-06T01:14:56.633Z,13.57
2024-02-06T01:17:29.106Z,12.30
2024-02-06T01:20:01.937Z,12.85
2024-02-06T01:22:34.089Z,12.40
2024-02-06T01:25:06.773Z,15.55
2024-02-06T01:27:39.437Z,16.30
2024-02-06T01:30:13.150Z,14.32
2024-02-06T01:32:45.508Z,18.65
2024-02-06T01:35:18.714Z,17.73
2024-02-06T01:37:50.706Z,14.23
2024-02-06T01:40:23.139Z,15.10
2024-02-06T01:42:55.591Z,14.52
2024-02-06T01:45:28.392Z,15.07
2024-02-06T01:48:00.927Z,14.35
2024-02-06T01:50:33.492Z,11.75
2024-02-06T01:53:07.258Z,11.80
2024-02-06T01:55:40.097Z,11.77
2024-02-06T01:58:12.487Z,16.27
2024-02-06T02:00:45.840Z,16.20
2024-02-06T02:03:18.282Z,12.65
2024-02-06T02:05:51.424Z,18.40
2024-02-06T02:08:24.188Z,15.57
2024-02-06T02:10:56.626Z,16.60
2024-02-06T02:13:28.620Z,13.45
2024-02-06T02:16:01.476Z,14.23
2024-02-06T02:18:37.729Z,20.20
2024-02-06T02:21:14.409Z,13.30
2024-02-06T02:23:47.153Z,19.10
2024-02-06T02:26:19.935Z,11.57
2024-02-06T02:28:52.476Z,12.63
2024-02-06T02:31:26.429Z,13.93
2024-02-06T02:33:58.935Z,14.20
2024-02-06T02:36:31.749Z,13.75
2024-02-06T02:39:03.756Z,13.45
2024-02-06T02:41:36.941Z,14.70
2024-02-06T02:44:09.271Z,19.07
2024-02-06T02:46:42.165Z,12.55
2024-02-06T02:49:15.125Z,17.38
2024-02-06T02:51:47.453Z,13.70
2024-02-06T02:54:20.989Z,12.57
2024-02-06T02:56:53.776Z,13.17
2024-02-06T02:59:25.689Z,14.43
2024-02-06T03:01:58.125Z,16.20
2024-02-06T03:04:30.159Z,16.88
2024-02-06T03:07:02.561Z,15.25
2024-02-06T03:09:36.500Z,21.37
2024-02-06T03:12:09.026Z,17.13
2024-02-06T03:14:41.122Z,20.17
2024-02-06T03:20:27.304Z,19.80
2024-02-06T03:23:01.085Z,16.10
2024-02-06T03:25:33.601Z,14.30
2024-02-06T03:28:06.256Z,23.88
2024-02-06T03:30:38.360Z,16.25
2024-02-06T03:33:11.244Z,16.27
2024-02-06T03:35:44.689Z,16.33
2024-02-06T03:38:19.992Z,13.52
2024-02-06T03:40:51.953Z,14.40
2024-02-06T03:43:24.899Z,16.85
2024-02-06T03:45:56.881Z,16.60
2024-02-06T03:48:29.489Z,16.10
2024-02-06T03:51:04.536Z,16.77
2024-02-06T03:53:37.302Z,19.55
2024-02-06T03:56:09.705Z,16.77
2024-02-06T03:58:42.269Z,23.55
2024-02-06T04:01:14.406Z,21.03
2024-02-06T04:03:47.201Z,21.25
2024-02-06T04:06:20.488Z,18.30
2024-02-06T04:08:53.066Z,19.02
2024-02-06T04:11:25.508Z,17.08
2024-02-06T04:13:57.886Z,21.43
2024-02-06T04:16:29.940Z,17.02
2024-02-06T04:19:02.451Z,22.27
2024-02-06T04:21:34.869Z,23.40
2024-02-06T04:24:10.134Z,19.27
2024-02-06T04:26:42.283Z,23.43
2024-02-06T04:29:14.970Z,27.48
2024-02-06T04:31:49.252Z,21.60
2024-02-06T04:34:21.837Z,22.05
2024-02-06T04:36:53.891Z,22.38
2024-02-06T04:39:26.304Z,21.27
2024-02-06T04:41:58.645Z,21.27
2024-02-06T04:44:31.494Z,22.17
2024-02-06T04:47:03.530Z,20.55
2024-02-06T04:49:36.297Z,17.70
2024-02-06T04:52:08.519Z,22.90
2024-02-06T04:54:41.314Z,22.00
2024-02-06T04:57:13.342Z,23.20
2024-02-06T04:59:45.810Z,18.30
2024-02-06T05:02:19.328Z,20.58
2024-02-06T05:04:53.525Z,21.67
2024-02-06T05:07:25.746Z,20.63
2024-02-06T05:09:58.237Z,19.13
2024-02-06T05:12:30.273Z,19.73
2024-02-06T05:15:03.058Z,20.33
2024-02-06T05:17:35.480Z,21.37
2024-02-06T05:20:11.956Z,19.63
2024-02-06T05:22:44.707Z,20.75
2024-02-06T05:25:17.900Z,19.40
2024-02-06T05:27:51.466Z,24.27
2024-02-06T05:30:24.832Z,19.27
2024-02-06T05:32:56.855Z,22.17
2024-02-06T05:35:29.674Z,21.50
2024-02-06T05:38:02.021Z,19.13
2024-02-06T05:40:34.657Z,20.23
2024-02-06T05:43:06.929Z,18.43
2024-02-06T05:46:21.923Z,24.20
2024-02-06T05:48:55.462Z,23.13
2024-02-06T05:51:27.959Z,19.23
2024-02-06T05:54:00.376Z,20.20
2024-02-06T05:56:33.107Z,20.93
2024-02-06T05:59:05.584Z,20.20
2024-02-06T06:01:38.202Z,19.92
2024-02-06T06:04:11.111Z,18.60
2024-02-06T06:06:43.980Z,17.33
2024-02-06T06:09:16.055Z,19.70
2024-02-06T06:11:48.401Z,17.08
2024-02-06T06:14:20.792Z,18.95
2024-02-06T06:16:55.244Z,19.30
2024-02-06T06:19:28.469Z,19.15
2024-02-06T06:22:08.276Z,19.57
2024-02-06T06:24:40.376Z,17.60
2024-02-06T06:27:13.427Z,18.50
2024-02-06T06:29:48.681Z,21.55
2024-02-06T06:32:21.933Z,16.38
2024-02-06T06:34:54.060Z,19.80
2024-02-06T06:37:26.520Z,17.98
2024-02-06T06:39:59.128Z,14.68
2024-02-06T06:48:00.854Z,15.85
2024-02-06T06:50:34.163Z,16.27
2024-02-06T06:53:08.817Z,18.08
2024-02-06T06:55:42.292Z,18.10
2024-02-06T06:58:14.611Z,18.00
2024-02-06T07:00:47.394Z,17.55
2024-02-06T07:03:20.825Z,17.40
2024-02-06T07:05:55.465Z,15.43
2024-02-06T07:08:34.906Z,19.80
2024-02-06T07:11:08.359Z,20.27
2024-02-06T07:13:41.038Z,17.80
2024-02-06T07:16:14.077Z,17.00
2024-02-06T07:18:46.323Z,18.83
2024-02-06T07:21:18.736Z,17.08
2024-02-06T07:23:51.072Z,16.23
2024-02-06T07:26:23.936Z,17.95
2024-02-06T07:28:56.572Z,22.00
2024-02-06T07:31:29.169Z,16.85
2024-02-06T07:34:01.797Z,16.65
2024-02-06T07:36:34.706Z,22.75
2024-02-06T07:39:07.939Z,16.15
2024-02-06T07:41:41.475Z,16.23
2024-02-06T07:44:13.877Z,17.05
2024-02-06T07:46:46.914Z,15.75
2024-02-06T07:49:19.688Z,16.70
2024-02-06T07:51:52.795Z,18.48
2024-02-06T07:54:25.259Z,15.63
2024-02-06T07:56:58.213Z,20.33
2024-02-06T07:59:31.060Z,16.73
2024-02-06T08:02:03.830Z,16.33
2024-02-06T08:04:36.390Z,12.90
2024-02-06T08:07:09.082Z,15.73
2024-02-06T08:09:41.838Z,19.45
2024-02-06T08:12:15.656Z,15.32
2024-02-06T08:14:48.519Z,15.75
2024-02-06T08:17:22.797Z,11.05
2024-02-06T08:19:55.506Z,9.43
2024-02-06T08:22:27.992Z,10.70
2024-02-06T08:25:00.092Z,12.95
2024-02-06T08:27:32.617Z,14.25
2024-02-06T08:30:06.823Z,11.93
2024-02-06T08:32:39.386Z,9.83
2024-02-06T08:35:11.498Z,8.90
2024-02-06T08:37:44.080Z,9.05
2024-02-06T08:40:17.253Z,11.43
2024-02-06T08:43:02.923Z,11.40
2024-02-06T08:45:35.929Z,9.97
2024-02-06T08:48:09.715Z,11.57
2024-02-06T08:50:44.203Z,13.75
2024-02-06T08:53:18.167Z,9.20
2024-02-06T08:55:50.741Z,8.23
2024-02-06T08:58:24.716Z,9.03
2024-02-06T09:00:58.307Z,6.60
2024-02-06T09:03:30.828Z,8.80
2024-02-06T09:06:03.041Z,8.32
2024-02-06T09:08:35.730Z,6.93
2024-02-06T09:11:09.139Z,8.47
2024-02-06T09:13:41.607Z,7.35
2024-02-06T09:16:13.672Z,7.07
2024-02-06T09:18:46.439Z,6.75
2024-02-06T09:21:18.742Z,7.18
2024-02-06T09:23:51.336Z,6.27
2024-02-06T09:26:23.446Z,5.00
2024-02-06T09:28:56.090Z,5.97
2024-02-06T09:31:28.197Z,8.50
2024-02-06T09:34:02.135Z,5.75
2024-02-06T09:36:34.793Z,6.57
2024-02-06T09:39:11.557Z,6.05
2024-02-06T09:41:46.899Z,6.35
2024-02-06T09:44:19.050Z,7.00
2024-02-06T09:46:53.258Z,9.25
2024-02-06T09:49:25.758Z,5.03
2024-02-06T09:51:58.764Z,4.72
2024-02-06T09:54:34.260Z,5.03
2024-02-06T09:57:08.063Z,5.32
2024-02-06T09:59:41.452Z,5.75
2024-02-06T10:02:18.293Z,4.53
2024-02-06T10:04:54.574Z,5.05
2024-02-06T10:07:27.480Z,4.90
2024-02-06T10:10:00.946Z,5.22
2024-02-06T10:12:32.988Z,6.25
2024-02-06T10:15:06.070Z,6.30
2024-02-06T10:17:42.139Z,3.97
2024-02-06T10:20:15.233Z,3.60
2024-02-06T10:22:48.528Z,4.03
2024-02-06T10:25:21.062Z,5.10
2024-02-06T10:27:59.754Z,4.90
2024-02-06T10:30:35.854Z,4.15
2024-02-06T10:33:15.779Z,5.10
2024-02-06T10:35:49.442Z,4.78
2024-02-06T10:38:21.901Z,5.13
2024-02-06T10:41:05.746Z,5.07
2024-02-06T10:43:47.420Z,5.15
2024-02-06T10:46:25.503Z,4.35
2024-02-06T10:49:06.947Z,4.18
2024-02-06T10:51:39.508Z,5.60
2024-02-06T10:54:11.892Z,5.20
2024-02-06T10:56:54.047Z,4.60
2024-02-06T10:59:55.136Z,4.25
2024-02-06T11:02:35.329Z,5.97
2024-02-06T11:05:22.853Z,3.63
2024-02-06T11:08:03.490Z,7.80
2024-02-06T11:10:45.725Z,4.30
2024-02-06T11:13:26.626Z,4.50
2024-02-06T11:16:04.174Z,4.85
2024-02-06T11:19:01.260Z,3.65
2024-02-06T11:21:45.250Z,4.37
2024-02-06T11:24:21.390Z,3.88
2024-02-06T11:26:53.927Z,5.10
2024-02-06T11:29:26.896Z,4.10
2024-02-06T11:31:59.393Z,5.95
2024-02-06T11:34:32.175Z,4.77
2024-02-06T11:37:04.339Z,3.50
2024-02-06T11:39:38.252Z,5.20
2024-02-06T11:42:10.803Z,3.95
2024-02-06T11:44:44.303Z,3.92
2024-02-06T11:47:22.716Z,4.10
2024-02-06T11:49:56.763Z,4.85
2024-02-06T11:52:29.281Z,3.78
2024-02-06T11:55:02.100Z,4.80
2024-02-06T11:57:34.915Z,4.68
2024-02-06T12:00:11.389Z,3.93
2024-02-06T12:02:52.792Z,4.22
2024-02-06T12:05:26.444Z,3.85
2024-02-06T12:08:02.753Z,4.07
2024-02-06T12:10:38.009Z,5.40
2024-02-06T12:13:12.577Z,4.33
2024-02-06T12:15:45.656Z,4.75
2024-02-06T12:18:18.024Z,5.50
2024-02-06T12:20:51.065Z,3.92
2024-02-06T12:23:23.807Z,3.70
2024-02-06T12:25:56.670Z,3.47
2024-02-06T12:28:28.739Z,3.90
2024-02-06T12:31:02.298Z,3.78
2024-02-06T12:33:37.139Z,3.90
2024-02-06T12:36:11.128Z,4.63
2024-02-06T12:38:43.202Z,4.43
2024-02-06T12:41:16.542Z,4.65
2024-02-06T12:43:53.830Z,4.57
2024-02-06T12:46:26.760Z,5.63
2024-02-06T12:48:59.959Z,3.63
2024-02-06T12:51:33.196Z,4.53
2024-02-06T12:54:05.633Z,3.78
2024-02-06T12:56:38.410Z,5.30
2024-02-06T12:59:20.425Z,4.53
2024-02-06T13:02:08.400Z,4.97
2024-02-06T13:04:41.361Z,5.13
2024-02-06T13:07:21.866Z,4.85
2024-02-06T13:10:07.186Z,3.75
2024-02-06T13:12:44.582Z,3.58
2024-02-06T13:15:19.003Z,4.47
2024-02-06T13:17:52.534Z,4.23
2024-02-06T13:20:24.983Z,4.40
2024-02-06T13:23:08.404Z,3.85
2024-02-06T13:25:41.953Z,5.65
2024-02-06T13:28:14.209Z,4.43
2024-02-06T13:30:46.918Z,5.27
2024-02-06T13:33:19.078Z,4.45
2024-02-06T13:35:51.987Z,4.03
2024-02-06T13:38:24.550Z,3.60
2024-02-06T13:40:57.249Z,4.25
2024-02-06T13:43:30.095Z,4.07
2024-02-06T13:46:03.456Z,3.78
2024-02-06T13:48:36.318Z,6.38
2024-02-06T13:51:11.032Z,3.95
2024-02-06T13:53:43.140Z,4.95
2024-02-06T13:56:17.175Z,5.00
2024-02-06T13:58:49.479Z,4.50
2024-02-06T14:01:25.392Z,5.10
2024-02-06T14:03:57.965Z,6.93
2024-02-06T14:06:30.794Z,6.50
2024-02-06T14:09:05.634Z,4.40
2024-02-06T14:11:39.292Z,4.18
2024-02-06T14:14:11.776Z,4.85
2024-02-06T14:16:45.188Z,6.93
2024-02-06T14:19:17.400Z,4.97
2024-02-06T14:21:50.373Z,5.00
2024-02-06T14:24:24.652Z,4.53
2024-02-06T14:26:58.885Z,4.13
2024-02-06T14:29:31.355Z,6.45
2024-02-06T14:32:04.151Z,4.63
2024-02-06T14:34:36.810Z,4.77
2024-02-06T14:37:09.752Z,5.72
2024-02-06T14:39:43.092Z,4.35
2024-02-06T14:42:15.770Z,6.88
2024-02-06T14:44:52.240Z,6.18
2024-02-06T14:47:25.483Z,5.27
2024-02-06T14:49:58.014Z,4.88
2024-02-06T14:52:38.246Z,5.68
2024-02-06T14:55:10.987Z,4.95
2024-02-06T14:57:43.778Z,5.95
2024-02-06T15:00:17.040Z,5.80
2024-02-06T15:02:50.408Z,6.28
2024-02-06T15:06:20.191Z,5.53
2024-02-06T15:08:56.082Z,5.93
2024-02-06T15:11:28.864Z,6.30
2024-02-06T15:14:01.384Z,5.67
2024-02-06T15:16:33.624Z,5.25
2024-02-06T15:19:06.640Z,7.72
2024-02-06T15:21:40.293Z,5.80
2024-02-06T15:24:12.996Z,6.35
2024-02-06T15:26:45.417Z,5.53
2024-02-06T15:29:18.288Z,7.22
2024-02-06T15:31:50.912Z,7.97
2024-02-06T15:34:23.780Z,7.85
2024-02-06T15:36:57.209Z,7.50
2024-02-06T15:39:30.065Z,7.57
2024-02-06T15:42:02.167Z,7.05
2024-02-06T15:44:36.133Z,7.32
2024-02-06T15:47:08.458Z,5.20
2024-02-06T15:49:41.349Z,6.45
2024-02-06T15:52:14.051Z,5.77
2024-02-06T15:54:47.358Z,5.47
2024-02-06T15:57:22.620Z,6.10
2024-02-06T15:59:55.643Z,10.57
2024-02-06T16:02:30.364Z,5.10
2024-02-06T16:05:06.013Z,7.60
2024-02-06T16:07:38.304Z,8.65
2024-02-06T16:10:11.189Z,4.47
2024-02-06T16:12:50.109Z,5.68
2024-02-06T16:15:27.604Z,5.78
2024-02-06T16:17:59.788Z,5.33
2024-02-06T16:20:32.811Z,4.25
2024-02-06T16:23:05.208Z,5.57
2024-02-06T16:25:38.464Z,6.68
2024-02-06T16:28:11.674Z,6.22
2024-02-06T16:30:45.061Z,7.37
2024-02-06T16:33:17.804Z,5.20
2024-02-06T16:35:50.671Z,4.82
2024-02-06T16:38:23.764Z,6.13
2024-02-06T16:40:56.904Z,4.55
2024-02-06T16:43:29.335Z,5.70
2024-02-06T16:46:02.124Z,4.97
2024-02-06T16:48:34.742Z,4.43
2024-02-06T16:51:15.380Z,4.22
2024-02-06T16:53:48.952Z,5.97
2024-02-06T16:56:21.367Z,6.27
2024-02-06T16:58:54.101Z,5.88
2024-02-06T17:01:26.169Z,5.28
2024-02-06T17:03:58.965Z,6.47
2024-02-06T17:06:30.994Z,5.53
2024-02-06T17:09:04.282Z,4.97
2024-02-06T17:11:36.366Z,6.75
2024-02-06T17:14:08.707Z,5.22
2024-02-06T17:16:46.115Z,6.32
2024-02-06T17:19:19.223Z,4.65
2024-02-06T17:21:52.597Z,4.83
2024-02-06T17:24:25.305Z,5.18
2024-02-06T17:26:57.819Z,5.38
2024-02-06T17:29:31.767Z,5.35
2024-02-06T17:32:04.353Z,6.43
2024-02-06T17:34:37.277Z,4.67
2024-02-06T17:37:10.015Z,5.18
2024-02-06T17:39:43.010Z,6.40
2024-02-06T17:42:14.945Z,4.45
2024-02-06T17:44:47.685Z,4.95
2024-02-06T17:47:20.212Z,6.57
2024-02-06T17:49:53.123Z,6.03
2024-02-06T17:52:25.256Z,6.22
2024-02-06T17:54:58.275Z,5.25
2024-02-06T17:57:31.868Z,5.85
2024-02-06T18:00:07.497Z,5.50
2024-02-06T18:02:51.438Z,5.43
2024-02-06T18:05:28.185Z,6.82
2024-02-06T18:08:01.685Z,7.43
2024-02-06T18:10:34.100Z,5.78
2024-02-06T18:13:06.149Z,5.60
2024-02-06T18:15:39.427Z,6.75
2024-02-06T18:18:12.037Z,5.50
2024-02-06T18:20:45.079Z,8.02
2024-02-06T18:23:17.006Z,7.93
2024-02-06T18:25:49.995Z,8.07
2024-02-06T18:28:22.023Z,8.98
2024-02-06T18:30:56.469Z,8.00
2024-02-06T18:33:28.923Z,5.30
2024-02-06T18:36:01.953Z,5.93
2024-02-06T18:38:33.861Z,4.60
2024-02-06T18:41:07.303Z,5.75
2024-02-06T18:43:40.587Z,3.83
2024-02-06T18:46:13.704Z,4.70
2024-02-06T18:48:46.654Z,6.35
2024-02-06T18:51:20.942Z,4.73
2024-02-06T18:53:55.132Z,5.55
2024-02-06T18:56:28.306Z,5.95
2024-02-06T18:59:00.260Z,5.82
2024-02-06T19:01:33.267Z,4.90
2024-02-06T19:04:05.812Z,6.50
2024-02-06T19:06:38.593Z,5.35
2024-02-06T19:09:12.768Z,4.28
2024-02-06T19:11:45.985Z,3.70
2024-02-06T19:14:17.993Z,4.75
2024-02-06T19:16:51.204Z,4.10
2024-02-06T19:19:23.300Z,7.45
2024-02-06T19:21:55.982Z,4.10
2024-02-06T19:24:29.860Z,5.45
2024-02-06T19:27:02.667Z,4.85
2024-02-06T19:29:34.808Z,6.27
2024-02-06T19:32:08.090Z,4.80
2024-02-06T19:37:12.876Z,5.90
2024-02-06T19:39:45.158Z,5.65
2024-02-06T19:42:19.188Z,5.73
2024-02-06T19:44:51.886Z,4.03
2024-02-06T19:47:24.760Z,5.28
2024-02-06T19:49:57.345Z,4.78
2024-02-06T19:52:30.090Z,4.85
2024-02-06T19:55:03.422Z,5.00
2024-02-06T19:57:39.890Z,5.63
2024-02-06T20:00:12.440Z,5.15
2024-02-06T20:02:46.234Z,5.15
2024-02-06T20:05:19.511Z,5.90
2024-02-06T20:07:51.929Z,5.50
2024-02-06T20:10:24.636Z,5.78
2024-02-06T20:12:56.579Z,5.20
2024-02-06T20:15:29.115Z,4.72
2024-02-06T20:18:02.145Z,5.72
2024-02-06T20:20:36.827Z,6.13
2024-02-06T20:23:09.515Z,5.20
2024-02-06T20:25:41.995Z,5.55
2024-02-06T20:28:14.644Z,5.18
2024-02-06T20:30:46.742Z,6.07
2024-02-06T20:33:20.735Z,5.50
2024-02-06T20:35:53.173Z,7.80
2024-02-06T20:38:26.958Z,4.30
2024-02-06T20:40:59.106Z,4.93
2024-02-06T20:43:31.746Z,5.18
2024-02-06T20:46:05.701Z,5.87
2024-02-06T20:48:39.335Z,4.78
2024-02-06T20:51:12.148Z,4.80
2024-02-06T20:53:46.505Z,4.93
2024-02-06T20:56:23.074Z,4.75
2024-02-06T20:58:58.849Z,5.80
2024-02-06T21:01:33.828Z,5.50
2024-02-06T21:04:07.601Z,5.18
2024-02-06T21:06:40.351Z,5.53
2024-02-06T21:09:15.998Z,7.13
2024-02-06T21:11:48.740Z,4.50
2024-02-06T21:14:20.839Z,4.90
2024-02-06T21:16:53.686Z,4.85
2024-02-06T21:19:25.880Z,5.28
2024-02-06T21:21:59.619Z,6.82
2024-02-06T21:24:32.864Z,5.43
2024-02-06T21:27:06.401Z,9.18
2024-02-06T21:29:39.964Z,4.55
2024-02-06T21:32:14.626Z,5.88
2024-02-06T21:34:47.170Z,4.85
2024-02-06T21:37:19.649Z,6.90
2024-02-06T21:39:56.355Z,5.03
2024-02-06T21:42:28.873Z,7.28
2024-02-06T21:45:05.383Z,5.47
2024-02-06T21:47:41.807Z,5.70
2024-02-06T21:50:15.204Z,5.83
2024-02-06T21:52:48.344Z,6.00
2024-02-06T21:55:20.812Z,4.97
2024-02-06T21:57:53.980Z,8.10
2024-02-06T22:00:25.906Z,6.13
2024-02-06T22:03:00.126Z,7.20
2024-02-06T22:05:34.363Z,5.95
2024-02-06T22:08:07.222Z,5.97
2024-02-06T22:10:39.802Z,9.10
2024-02-06T22:13:11.862Z,7.07
2024-02-06T22:15:44.431Z,5.60
2024-02-06T22:18:16.960Z,8.10
2024-02-06T22:20:49.970Z,5.47
2024-02-06T22:23:21.909Z,6.15
2024-02-06T22:25:54.511Z,6.22
2024-02-06T22:28:27.384Z,7.10
2024-02-06T22:30:59.385Z,11.38
2024-02-06T22:33:31.953Z,6.32
2024-02-06T22:36:04.417Z,6.97
2024-02-06T22:38:37.150Z,6.03
2024-02-06T22:41:09.620Z,8.80
2024-02-06T22:43:42.271Z,5.63
2024-02-06T22:46:14.235Z,9.48
2024-02-06T22:48:46.807Z,5.97
2024-02-06T22:55:08.145Z,6.83
2024-02-06T22:57:40.646Z,8.77
2024-02-06T23:00:20.604Z,7.35
2024-02-06T23:02:54.207Z,7.90
2024-02-06T23:05:29.651Z,9.45
2024-02-06T23:08:02.271Z,9.73
2024-02-06T23:10:34.338Z,8.32
2024-02-06T23:13:06.667Z,7.30
2024-02-06T23:15:39.077Z,8.93
2024-02-06T23:18:12.348Z,8.70
2024-02-06T23:20:45.206Z,12.53
2024-02-06T23:23:17.168Z,8.00
2024-02-06T23:25:50.068Z,6.97
2024-02-06T23:28:22.198Z,9.43
2024-02-06T23:30:54.644Z,8.07
2024-02-06T23:33:26.705Z,6.87
2024-02-06T23:35:59.217Z,7.40
2024-02-06T23:38:32.490Z,7.85
2024-02-06T23:41:04.693Z,7.38
2024-02-06T23:43:37.112Z,7.78
2024-02-06T23:46:09.123Z,7.37
2024-02-06T23:48:41.561Z,6.20
2024-02-06T23:51:13.923Z,7.55
2024-02-06T23:53:45.864Z,9.05
2024-02-06T23:56:18.392Z,7.43
2024-02-06T23:58:50.455Z,6.07
